sensor_id;sensor_type;location;lat;lon;timestamp;pressure;altitude;pressure_sealevel;temperature;humidity
8717;BME280;4395;48.554;8.820;2023-05-16T00:01:41;95581.22;;;11.85;100.00
8717;BME280;4395;48.554;8.820;2023-05-16T00:03:43;95558.28;;;11.62;100.00
8717;BME280;4395;48.554;8.820;2023-05-16T00:05:46;95584.75;;;11.90;100.00
8717;BME280;4395;48.554;8.820;2023-05-16T00:07:49;95576.66;;;11.96;100.00
8717;BME280;4395;48.554;8.820;2023-05-16T00:09:52;95572.91;;;11.97;100.00
8717;BME280;4395;48.554;8.820;2023-05-16T00:11:56;95575.84;;;12.00;100.00
8717;BME280;4395;48.554;8.820;2023-05-16T00:13:59;95569.13;;;11.98;100.00
8717;BME280;4395;48.554;8.820;2023-05-16T00:16:03;95577.19;;;12.03;100.00
8717;BME280;4395;48.554;8.820;2023-05-16T00:18:07;95573.97;;;12.01;100.00
8717;BME280;4395;48.554;8.820;2023-05-16T00:20:11;95558.63;;;11.96;100.00
8717;BME280;4395;48.554;8.820;2023-05-16T00:22:14;95578.28;;;12.17;100.00
8717;BME280;4395;48.554;8.820;2023-05-16T00:24:17;95561.59;;;12.20;100.00
8717;BME280;4395;48.554;8.820;2023-05-16T00:26:20;95566.44;;;12.13;100.00
8717;BME280;4395;48.554;8.820;2023-05-16T00:28:24;95563.75;;;12.18;100.00
8717;BME280;4395;48.554;8.820;2023-05-16T00:30:27;95518.50;;;11.89;100.00
8717;BME280;4395;48.554;8.820;2023-05-16T00:32:30;95518.78;;;11.93;100.00
8717;BME280;4395;48.554;8.820;2023-05-16T00:34:34;95561.59;;;12.00;100.00
8717;BME280;4395;48.554;8.820;2023-05-16T00:36:37;95558.28;;;11.62;100.00
8717;BME280;4395;48.554;8.820;2023-05-16T00:38:40;95555.66;;;11.82;100.00
8717;BME280;4395;48.554;8.820;2023-05-16T00:40:42;95557.81;;;11.80;100.00
8717;BME280;4395;48.554;8.820;2023-05-16T00:42:45;95558.88;;;11.84;100.00
8717;BME280;4395;48.554;8.820;2023-05-16T00:44:49;95552.44;;;11.90;100.00
8717;BME280;4395;48.554;8.820;2023-05-16T00:46:53;95524.38;;;11.66;100.00
8717;BME280;4395;48.554;8.820;2023-05-16T00:48:55;95524.38;;;11.56;100.00
8717;BME280;4395;48.554;8.820;2023-05-16T00:50:59;95533.53;;;11.55;100.00
8717;BME280;4395;48.554;8.820;2023-05-16T00:53:03;95431.13;;;10.69;100.00
8717;BME280;4395;48.554;8.820;2023-05-16T00:55:06;95517.22;;;10.94;100.00
8717;BME280;4395;48.554;8.820;2023-05-16T00:57:11;95557.69;;;11.30;100.00
8717;BME280;4395;48.554;8.820;2023-05-16T00:59:22;95567.38;;;11.36;100.00
8717;BME280;4395;48.554;8.820;2023-05-16T01:01:28;95510.31;;;11.18;100.00
8717;BME280;4395;48.554;8.820;2023-05-16T01:03:31;95560.44;;;11.55;100.00
8717;BME280;4395;48.554;8.820;2023-05-16T01:05:35;95550.75;;;11.69;100.00
8717;BME280;4395;48.554;8.820;2023-05-16T01:07:37;95561.03;;;11.82;100.00
8717;BME280;4395;48.554;8.820;2023-05-16T01:09:41;95564.28;;;11.89;100.00
8717;BME280;4395;48.554;8.820;2023-05-16T01:11:49;95557.28;;;11.94;100.00
8717;BME280;4395;48.554;8.820;2023-05-16T01:13:59;95453.84;;;11.39;100.00
8717;BME280;4395;48.554;8.820;2023-05-16T01:16:09;95549.72;;;12.01;100.00
8717;BME280;4395;48.554;8.820;2023-05-16T01:18:22;95558.34;;;11.77;100.00
8717;BME280;4395;48.554;8.820;2023-05-16T01:20:34;95557.81;;;11.80;100.00
8717;BME280;4395;48.554;8.820;2023-05-16T01:22:47;95563.13;;;11.55;100.00
8717;BME280;4395;48.554;8.820;2023-05-16T01:25:01;95560.97;;;11.62;100.00
8717;BME280;4395;48.554;8.820;2023-05-16T01:27:08;95512.22;;;11.28;100.00
8717;BME280;4395;48.554;8.820;2023-05-16T01:29:12;95568.25;;;11.72;100.00
8717;BME280;4395;48.554;8.820;2023-05-16T01:31:16;95572.56;;;11.73;100.00
8717;BME280;4395;48.554;8.820;2023-05-16T01:33:19;95573.09;;;11.70;100.00
8717;BME280;4395;48.554;8.820;2023-05-16T01:35:22;95574.44;;;11.57;100.00
8717;BME280;4395;48.554;8.820;2023-05-16T01:37:28;95455.38;;;10.89;100.00
8717;BME280;4395;48.554;8.820;2023-05-16T01:39:40;95569.06;;;11.62;100.00
8717;BME280;4395;48.554;8.820;2023-05-16T01:41:51;95565.28;;;11.68;100.00
8717;BME280;4395;48.554;8.820;2023-05-16T01:44:00;95572.28;;;11.64;100.00
8717;BME280;4395;48.554;8.820;2023-05-16T01:46:08;95576.88;;;11.69;100.00
8717;BME280;4395;48.554;8.820;2023-05-16T01:48:15;95574.41;;;11.52;100.00
8717;BME280;4395;48.554;8.820;2023-05-16T01:50:21;95571.63;;;11.21;100.00
8717;BME280;4395;48.554;8.820;2023-05-16T01:52:33;95575.94;;;11.22;100.00
8717;BME280;4395;48.554;8.820;2023-05-16T01:54:38;95530.41;;;10.95;100.00
8717;BME280;4395;48.554;8.820;2023-05-16T01:56:46;95576.47;;;11.19;100.00
8717;BME280;4395;48.554;8.820;2023-05-16T01:58:52;95566.78;;;11.18;100.00
8717;BME280;4395;48.554;8.820;2023-05-16T02:01:01;95575.19;;;11.37;100.00
8717;BME280;4395;48.554;8.820;2023-05-16T02:03:04;95570.38;;;11.49;100.00
8717;BME280;4395;48.554;8.820;2023-05-16T02:05:08;95570.63;;;11.38;100.00
8717;BME280;4395;48.554;8.820;2023-05-16T02:07:11;95578.34;;;11.19;100.00
8717;BME280;4395;48.554;8.820;2023-05-16T02:09:15;95572.56;;;10.85;100.00
8717;BME280;4395;48.554;8.820;2023-05-16T02:11:18;95570.25;;;11.09;100.00
8717;BME280;4395;48.554;8.820;2023-05-16T02:13:21;95570.50;;;11.02;100.00
8717;BME280;4395;48.554;8.820;2023-05-16T02:15:25;95567.78;;;10.97;100.00
8717;BME280;4395;48.554;8.820;2023-05-16T02:17:30;95576.78;;;10.71;100.00
8717;BME280;4395;48.554;8.820;2023-05-16T02:19:33;95575.03;;;10.97;100.00
8717;BME280;4395;48.554;8.820;2023-05-16T02:21:36;95575.91;;;11.12;100.00
8717;BME280;4395;48.554;8.820;2023-05-16T02:23:38;95579.69;;;11.16;100.00
8717;BME280;4395;48.554;8.820;2023-05-16T02:25:42;95586.44;;;11.24;100.00
8717;BME280;4395;48.554;8.820;2023-05-16T02:27:45;95579.22;;;11.35;100.00
8717;BME280;4395;48.554;8.820;2023-05-16T02:29:47;95580.91;;;10.88;100.00
8717;BME280;4395;48.554;8.820;2023-05-16T02:31:50;95546.69;;;10.69;100.00
8717;BME280;4395;48.554;8.820;2023-05-16T02:33:55;95578.78;;;10.90;100.00
8717;BME280;4395;48.554;8.820;2023-05-16T02:35:58;95571.31;;;10.50;100.00
8717;BME280;4395;48.554;8.820;2023-05-16T02:38:01;95582.84;;;10.51;100.00
8717;BME280;4395;48.554;8.820;2023-05-16T02:40:05;95580.00;;;10.30;100.00
8717;BME280;4395;48.554;8.820;2023-05-16T02:42:10;95548.16;;;10.12;100.00
8717;BME280;4395;48.554;8.820;2023-05-16T02:44:13;95564.63;;;10.21;100.00
8717;BME280;4395;48.554;8.820;2023-05-16T02:46:20;95564.56;;;10.16;100.00
8717;BME280;4395;48.554;8.820;2023-05-16T02:48:23;95543.53;;;10.03;100.00
8717;BME280;4395;48.554;8.820;2023-05-16T02:50:27;95566.41;;;10.10;100.00
8717;BME280;4395;48.554;8.820;2023-05-16T02:52:30;95554.34;;;10.13;100.00
8717;BME280;4395;48.554;8.820;2023-05-16T02:54:33;95560.53;;;10.13;100.00
8717;BME280;4395;48.554;8.820;2023-05-16T02:56:36;95559.19;;;10.16;100.00
8717;BME280;4395;48.554;8.820;2023-05-16T02:58:39;95484.50;;;9.71;100.00
8717;BME280;4395;48.554;8.820;2023-05-16T03:00:42;95521.16;;;9.92;100.00
8717;BME280;4395;48.554;8.820;2023-05-16T03:02:45;95558.91;;;10.12;100.00
8717;BME280;4395;48.554;8.820;2023-05-16T03:04:48;95557.03;;;10.13;100.00
8717;BME280;4395;48.554;8.820;2023-05-16T03:06:52;95557.56;;;10.15;100.00
8717;BME280;4395;48.554;8.820;2023-05-16T03:08:55;95445.94;;;9.45;100.00
8717;BME280;4395;48.554;8.820;2023-05-16T03:10:58;95516.69;;;10.03;100.00
8717;BME280;4395;48.554;8.820;2023-05-16T03:13:01;95563.06;;;10.25;100.00
8717;BME280;4395;48.554;8.820;2023-05-16T03:15:05;95559.25;;;10.21;100.00
8717;BME280;4395;48.554;8.820;2023-05-16T03:17:10;95563.81;;;10.20;100.00
8717;BME280;4395;48.554;8.820;2023-05-16T03:19:13;95542.94;;;9.95;100.00
8717;BME280;4395;48.554;8.820;2023-05-16T03:21:15;95521.94;;;9.87;100.00
8717;BME280;4395;48.554;8.820;2023-05-16T03:23:20;95516.97;;;9.69;100.00
8717;BME280;4395;48.554;8.820;2023-05-16T03:25:23;95500.09;;;9.74;100.00
8717;BME280;4395;48.554;8.820;2023-05-16T03:27:27;95567.00;;;10.17;100.00
8717;BME280;4395;48.554;8.820;2023-05-16T03:29:30;95561.53;;;10.07;100.00
8717;BME280;4395;48.554;8.820;2023-05-16T03:31:32;95562.28;;;9.97;100.00
8717;BME280;4395;48.554;8.820;2023-05-16T03:33:36;95564.56;;;10.16;100.00
8717;BME280;4395;48.554;8.820;2023-05-16T03:35:39;95565.69;;;10.20;100.00
8717;BME280;4395;48.554;8.820;2023-05-16T03:37:42;95567.16;;;10.38;100.00
8717;BME280;4395;48.554;8.820;2023-05-16T03:39:46;95566.69;;;10.14;100.00
8717;BME280;4395;48.554;8.820;2023-05-16T03:41:49;95574.19;;;10.12;100.00
8717;BME280;4395;48.554;8.820;2023-05-16T03:43:52;95560.81;;;10.17;100.00
8717;BME280;4395;48.554;8.820;2023-05-16T03:45:55;95511.25;;;9.92;100.00
8717;BME280;4395;48.554;8.820;2023-05-16T03:47:58;95575.19;;;10.32;100.00
8717;BME280;4395;48.554;8.820;2023-05-16T03:50:00;95575.47;;;10.36;100.00
8717;BME280;4395;48.554;8.820;2023-05-16T03:52:04;95585.09;;;10.27;100.00
8717;BME280;4395;48.554;8.820;2023-05-16T03:54:07;95472.53;;;9.51;100.00
8717;BME280;4395;48.554;8.820;2023-05-16T03:56:11;95573.16;;;10.18;100.00
8717;BME280;4395;48.554;8.820;2023-05-16T03:58:14;95570.66;;;10.06;100.00
8717;BME280;4395;48.554;8.820;2023-05-16T04:00:17;95576.59;;;10.08;100.00
8717;BME280;4395;48.554;8.820;2023-05-16T04:02:19;95581.56;;;10.21;100.00
8717;BME280;4395;48.554;8.820;2023-05-16T04:04:22;95575.13;;;10.22;100.00
8717;BME280;4395;48.554;8.820;2023-05-16T04:06:25;95575.81;;;10.13;100.00
8717;BME280;4395;48.554;8.820;2023-05-16T04:08:28;95582.41;;;10.27;100.00
8717;BME280;4395;48.554;8.820;2023-05-16T04:10:31;95530.56;;;9.94;100.00
8717;BME280;4395;48.554;8.820;2023-05-16T04:12:35;95589.78;;;10.42;100.00
8717;BME280;4395;48.554;8.820;2023-05-16T04:14:38;95582.84;;;10.19;100.00
8717;BME280;4395;48.554;8.820;2023-05-16T04:16:41;95584.16;;;10.16;100.00
8717;BME280;4395;48.554;8.820;2023-05-16T04:18:44;95584.16;;;10.16;100.00
8717;BME280;4395;48.554;8.820;2023-05-16T04:20:47;95517.66;;;9.91;100.00
8717;BME280;4395;48.554;8.820;2023-05-16T04:22:50;95580.66;;;10.43;100.00
8717;BME280;4395;48.554;8.820;2023-05-16T04:24:53;95589.28;;;10.18;100.00
8717;BME280;4395;48.554;8.820;2023-05-16T04:26:56;95065.09;;;6.25;100.00
8717;BME280;4395;48.554;8.820;2023-05-16T04:29:00;95583.44;;;10.21;100.00
8717;BME280;4395;48.554;8.820;2023-05-16T04:31:03;95563.16;;;10.08;100.00
8717;BME280;4395;48.554;8.820;2023-05-16T04:33:06;95588.53;;;10.54;100.00
8717;BME280;4395;48.554;8.820;2023-05-16T04:35:09;95598.59;;;10.37;100.00
8717;BME280;4395;48.554;8.820;2023-05-16T04:37:12;95589.66;;;10.26;100.00
8717;BME280;4395;48.554;8.820;2023-05-16T04:39:15;95592.19;;;10.11;100.00
8717;BME280;4395;48.554;8.820;2023-05-16T04:41:18;95597.59;;;10.16;100.00
8717;BME280;4395;48.554;8.820;2023-05-16T04:43:20;95590.09;;;10.18;100.00
8717;BME280;4395;48.554;8.820;2023-05-16T04:45:24;95593.03;;;10.17;100.00
8717;BME280;4395;48.554;8.820;2023-05-16T04:47:28;95606.09;;;10.35;100.00
8717;BME280;4395;48.554;8.820;2023-05-16T04:49:30;95489.44;;;9.84;100.00
8717;BME280;4395;48.554;8.820;2023-05-16T04:51:33;95573.41;;;10.43;100.00
8717;BME280;4395;48.554;8.820;2023-05-16T04:53:36;95601.53;;;10.73;100.00
8717;BME280;4395;48.554;8.820;2023-05-16T04:55:39;95609.00;;;10.66;100.00
8717;BME280;4395;48.554;8.820;2023-05-16T04:57:42;95614.13;;;10.67;100.00
8717;BME280;4395;48.554;8.820;2023-05-16T04:59:45;95613.84;;;10.63;100.00
8717;BME280;4395;48.554;8.820;2023-05-16T05:01:49;95613.38;;;10.77;100.00
8717;BME280;4395;48.554;8.820;2023-05-16T05:03:52;95611.94;;;10.59;100.00
8717;BME280;4395;48.554;8.820;2023-05-16T05:05:55;95616.00;;;10.67;100.00
8717;BME280;4395;48.554;8.820;2023-05-16T05:07:57;95436.34;;;9.54;100.00
8717;BME280;4395;48.554;8.820;2023-05-16T05:10:00;95615.00;;;10.78;100.00
8717;BME280;4395;48.554;8.820;2023-05-16T05:12:04;95618.25;;;10.80;100.00
8717;BME280;4395;48.554;8.820;2023-05-16T05:14:08;95616.72;;;10.99;100.00
8717;BME280;4395;48.554;8.820;2023-05-16T05:16:11;95618.19;;;10.70;100.00
8717;BME280;4395;48.554;8.820;2023-05-16T05:18:15;95617.53;;;10.52;100.00
8717;BME280;4395;48.554;8.820;2023-05-16T05:20:18;95554.75;;;9.94;100.00
8717;BME280;4395;48.554;8.820;2023-05-16T05:22:21;95616.28;;;10.33;100.00
8717;BME280;4395;48.554;8.820;2023-05-16T05:24:24;95618.19;;;10.38;100.00
8717;BME280;4395;48.554;8.820;2023-05-16T05:26:26;95620.50;;;10.24;100.00
8717;BME280;4395;48.554;8.820;2023-05-16T05:28:29;95617.34;;;10.32;100.00
8717;BME280;4395;48.554;8.820;2023-05-16T05:30:32;95616.69;;;10.47;100.00
8717;BME280;4395;48.554;8.820;2023-05-16T05:32:35;95621.59;;;10.60;100.00
8717;BME280;4395;48.554;8.820;2023-05-16T05:34:39;95616.75;;;10.57;100.00
8717;BME280;4395;48.554;8.820;2023-05-16T05:36:42;95565.22;;;10.28;100.00
8717;BME280;4395;48.554;8.820;2023-05-16T05:38:45;95617.53;;;10.52;100.00
8717;BME280;4395;48.554;8.820;2023-05-16T05:40:47;95626.78;;;10.72;100.00
8717;BME280;4395;48.554;8.820;2023-05-16T05:42:51;95620.84;;;10.65;100.00
8717;BME280;4395;48.554;8.820;2023-05-16T05:44:54;95620.00;;;10.59;100.00
8717;BME280;4395;48.554;8.820;2023-05-16T05:46:57;95619.38;;;10.47;100.00
8717;BME280;4395;48.554;8.820;2023-05-16T05:49:00;95611.94;;;10.59;100.00
8717;BME280;4395;48.554;8.820;2023-05-16T05:51:04;95599.78;;;10.51;100.00
8717;BME280;4395;48.554;8.820;2023-05-16T05:53:07;95620.31;;;10.68;100.00
8717;BME280;4395;48.554;8.820;2023-05-16T05:55:10;95627.75;;;10.55;100.00
8717;BME280;4395;48.554;8.820;2023-05-16T05:57:12;95623.28;;;10.71;100.00
8717;BME280;4395;48.554;8.820;2023-05-16T05:59:15;95628.88;;;10.59;100.00
8717;BME280;4395;48.554;8.820;2023-05-16T06:01:18;95608.19;;;10.28;100.00
8717;BME280;4395;48.554;8.820;2023-05-16T06:03:22;95589.44;;;10.33;100.00
8717;BME280;4395;48.554;8.820;2023-05-16T06:05:25;95636.44;;;10.68;100.00
8717;BME280;4395;48.554;8.820;2023-05-16T06:07:30;95554.50;;;10.33;100.00
8717;BME280;4395;48.554;8.820;2023-05-16T06:09:33;95637.03;;;10.75;100.00
8717;BME280;4395;48.554;8.820;2023-05-16T06:11:36;95647.34;;;10.93;100.00
8717;BME280;4395;48.554;8.820;2023-05-16T06:13:38;95598.94;;;10.46;100.00
8717;BME280;4395;48.554;8.820;2023-05-16T06:15:41;95643.59;;;10.94;100.00
8717;BME280;4395;48.554;8.820;2023-05-16T06:17:44;95648.91;;;10.84;100.00
8717;BME280;4395;48.554;8.820;2023-05-16T06:19:47;95658.69;;;10.58;100.00
8717;BME280;4395;48.554;8.820;2023-05-16T06:21:49;95614.63;;;10.27;100.00
8717;BME280;4395;48.554;8.820;2023-05-16T06:23:54;95650.72;;;10.73;100.00
8717;BME280;4395;48.554;8.820;2023-05-16T06:25:56;95652.03;;;10.71;100.00
8717;BME280;4395;48.554;8.820;2023-05-16T06:27:59;95655.84;;;10.75;100.00
8717;BME280;4395;48.554;8.820;2023-05-16T06:30:02;95658.81;;;10.78;100.00
8717;BME280;4395;48.554;8.820;2023-05-16T06:32:06;95652.28;;;10.64;100.00
8717;BME280;4395;48.554;8.820;2023-05-16T06:34:12;95653.97;;;10.75;100.00
8717;BME280;4395;48.554;8.820;2023-05-16T06:36:15;95651.69;;;10.57;100.00
8717;BME280;4395;48.554;8.820;2023-05-16T06:38:18;95656.88;;;10.69;100.00
8717;BME280;4395;48.554;8.820;2023-05-16T06:40:22;95587.59;;;10.07;100.00
8717;BME280;4395;48.554;8.820;2023-05-16T06:42:25;95659.44;;;10.53;100.00
8717;BME280;4395;48.554;8.820;2023-05-16T06:44:28;95654.16;;;10.63;100.00
8717;BME280;4395;48.554;8.820;2023-05-16T06:46:31;95661.91;;;10.60;100.00
8717;BME280;4395;48.554;8.820;2023-05-16T06:48:34;95667.38;;;10.38;100.00
8717;BME280;4395;48.554;8.820;2023-05-16T06:50:37;95673.91;;;10.47;100.00
8717;BME280;4395;48.554;8.820;2023-05-16T06:52:40;95668.25;;;10.44;100.00
8717;BME280;4395;48.554;8.820;2023-05-16T06:54:43;95666.16;;;10.24;100.00
8717;BME280;4395;48.554;8.820;2023-05-16T06:56:47;95659.72;;;10.25;100.00
8717;BME280;4395;48.554;8.820;2023-05-16T06:58:50;95673.66;;;10.22;100.00
8717;BME280;4395;48.554;8.820;2023-05-16T07:00:53;95671.03;;;10.27;100.00
8717;BME280;4395;48.554;8.820;2023-05-16T07:02:56;95490.78;;;8.95;100.00
8717;BME280;4395;48.554;8.820;2023-05-16T07:04:59;95610.47;;;9.82;100.00
8717;BME280;4395;48.554;8.820;2023-05-16T07:07:02;95674.72;;;10.21;100.00
8717;BME280;4395;48.554;8.820;2023-05-16T07:09:05;95669.97;;;10.28;100.00
8717;BME280;4395;48.554;8.820;2023-05-16T07:11:08;95675.03;;;10.24;100.00
8717;BME280;4395;48.554;8.820;2023-05-16T07:13:13;95684.84;;;10.14;100.00
8717;BME280;4395;48.554;8.820;2023-05-16T07:15:16;95675.47;;;10.16;100.00
8717;BME280;4395;48.554;8.820;2023-05-16T07:17:19;95683.47;;;10.38;100.00
8717;BME280;4395;48.554;8.820;2023-05-16T07:19:21;95682.28;;;10.24;100.00
8717;BME280;4395;48.554;8.820;2023-05-16T07:21:24;95685.78;;;10.24;100.00
8717;BME280;4395;48.554;8.820;2023-05-16T07:23:27;95683.53;;;10.16;100.00
8717;BME280;4395;48.554;8.820;2023-05-16T07:25:30;95683.38;;;10.28;100.00
8717;BME280;4395;48.554;8.820;2023-05-16T07:27:33;95686.75;;;10.18;100.00
8717;BME280;4395;48.554;8.820;2023-05-16T07:29:38;95696.59;;;10.08;100.00
8717;BME280;4395;48.554;8.820;2023-05-16T07:31:41;95688.50;;;10.29;100.00
8717;BME280;4395;48.554;8.820;2023-05-16T07:33:44;95685.97;;;10.18;100.00
8717;BME280;4395;48.554;8.820;2023-05-16T07:35:47;95690.78;;;10.16;100.00
8717;BME280;4395;48.554;8.820;2023-05-16T07:37:50;95684.06;;;10.40;100.00
8717;BME280;4395;48.554;8.820;2023-05-16T07:39:53;95699.03;;;10.36;100.00
8717;BME280;4395;48.554;8.820;2023-05-16T07:41:56;95688.94;;;10.43;100.00
8717;BME280;4395;48.554;8.820;2023-05-16T07:43:59;95688.84;;;10.38;100.00
8717;BME280;4395;48.554;8.820;2023-05-16T07:46:04;95694.47;;;10.63;100.00
8717;BME280;4395;48.554;8.820;2023-05-16T07:48:07;95692.84;;;10.62;100.00
8717;BME280;4395;48.554;8.820;2023-05-16T07:50:10;95697.38;;;10.30;100.00
8717;BME280;4395;48.554;8.820;2023-05-16T07:52:13;95699.03;;;10.36;100.00
8717;BME280;4395;48.554;8.820;2023-05-16T07:54:16;95703.00;;;10.28;100.00
8717;BME280;4395;48.554;8.820;2023-05-16T07:56:19;95701.09;;;10.24;100.00
8717;BME280;4395;48.554;8.820;2023-05-16T07:58:22;95608.13;;;9.64;100.00
8717;BME280;4395;48.554;8.820;2023-05-16T08:00:25;95656.22;;;9.97;100.00
8717;BME280;4395;48.554;8.820;2023-05-16T08:02:29;95692.00;;;10.30;100.00
8717;BME280;4395;48.554;8.820;2023-05-16T08:04:32;95690.53;;;10.44;100.00
8717;BME280;4395;48.554;8.820;2023-05-16T08:06:35;95695.47;;;10.57;100.00
8717;BME280;4395;48.554;8.820;2023-05-16T08:08:38;95693.31;;;10.54;100.00
8717;BME280;4395;48.554;8.820;2023-05-16T08:10:41;95695.22;;;10.59;100.00
8717;BME280;4395;48.554;8.820;2023-05-16T08:12:44;95700.16;;;10.72;100.00
8717;BME280;4395;48.554;8.820;2023-05-16T08:14:48;95703.56;;;10.57;100.00
8717;BME280;4395;48.554;8.820;2023-05-16T08:16:51;95693.91;;;10.61;100.00
8717;BME280;4395;48.554;8.820;2023-05-16T08:18:55;95703.19;;;10.81;100.00
8717;BME280;4395;48.554;8.820;2023-05-16T08:20:58;95700.34;;;10.60;100.00
8717;BME280;4395;48.554;8.820;2023-05-16T08:23:01;95686.88;;;10.28;100.00
8717;BME280;4395;48.554;8.820;2023-05-16T08:25:05;95708.97;;;10.36;100.00
8717;BME280;4395;48.554;8.820;2023-05-16T08:27:09;95710.41;;;10.43;100.00
8717;BME280;4395;48.554;8.820;2023-05-16T08:29:12;95708.16;;;10.35;100.00
8717;BME280;4395;48.554;8.820;2023-05-16T08:31:15;95684.97;;;10.24;100.00
8717;BME280;4395;48.554;8.820;2023-05-16T08:33:18;95709.94;;;10.24;100.00
8717;BME280;4395;48.554;8.820;2023-05-16T08:35:22;95717.88;;;10.14;100.00
8717;BME280;4395;48.554;8.820;2023-05-16T08:37:25;95708.88;;;10.25;100.00
8717;BME280;4395;48.554;8.820;2023-05-16T08:39:28;95733.03;;;10.47;100.00
8717;BME280;4395;48.554;8.820;2023-05-16T08:41:31;95710.09;;;10.40;100.00
8717;BME280;4395;48.554;8.820;2023-05-16T08:43:34;95708.97;;;10.36;100.00
8717;BME280;4395;48.554;8.820;2023-05-16T08:45:39;95713.75;;;10.55;100.00
8717;BME280;4395;48.554;8.820;2023-05-16T08:47:43;95717.84;;;10.63;100.00
8717;BME280;4395;48.554;8.820;2023-05-16T08:49:47;95721.88;;;10.66;100.00
8717;BME280;4395;48.554;8.820;2023-05-16T08:51:56;95721.50;;;10.52;100.00
8717;BME280;4395;48.554;8.820;2023-05-16T08:54:03;95729.34;;;10.58;100.00
8717;BME280;4395;48.554;8.820;2023-05-16T08:56:08;95724.97;;;10.47;100.00
8717;BME280;4395;48.554;8.820;2023-05-16T08:58:12;95722.31;;;10.52;100.00
8717;BME280;4395;48.554;8.820;2023-05-16T09:00:16;95702.91;;;10.45;100.00
8717;BME280;4395;48.554;8.820;2023-05-16T09:02:20;95725.09;;;10.62;100.00
8717;BME280;4395;48.554;8.820;2023-05-16T09:04:23;95719.63;;;10.52;100.00
8717;BME280;4395;48.554;8.820;2023-05-16T09:06:28;95737.09;;;10.28;100.00
8717;BME280;4395;48.554;8.820;2023-05-16T09:08:32;95733.31;;;10.51;100.00
8717;BME280;4395;48.554;8.820;2023-05-16T09:10:36;95729.94;;;10.66;100.00
8717;BME280;4395;48.554;8.820;2023-05-16T09:12:39;95738.78;;;10.34;100.00
8717;BME280;4395;48.554;8.820;2023-05-16T09:14:42;95741.41;;;10.29;100.00
8717;BME280;4395;48.554;8.820;2023-05-16T09:17:02;95731.91;;;10.43;100.00
8717;BME280;4395;48.554;8.820;2023-05-16T09:19:05;95738.19;;;10.54;100.00
8717;BME280;4395;48.554;8.820;2023-05-16T09:21:09;95693.13;;;10.34;100.00
8717;BME280;4395;48.554;8.820;2023-05-16T09:23:12;95736.50;;;10.80;100.00
8717;BME280;4395;48.554;8.820;2023-05-16T09:25:17;95724.09;;;10.42;100.00
8717;BME280;4395;48.554;8.820;2023-05-16T09:27:31;95732.50;;;10.50;100.00
8717;BME280;4395;48.554;8.820;2023-05-16T09:29:34;95738.66;;;10.46;100.00
8717;BME280;4395;48.554;8.820;2023-05-16T09:31:37;95733.09;;;10.57;100.00
8717;BME280;4395;48.554;8.820;2023-05-16T09:33:41;95661.53;;;10.19;100.00
8717;BME280;4395;48.554;8.820;2023-05-16T09:35:44;95731.13;;;10.80;100.00
8717;BME280;4395;48.554;8.820;2023-05-16T09:37:48;95739.81;;;10.92;100.00
8717;BME280;4395;48.554;8.820;2023-05-16T09:39:52;95738.66;;;10.78;100.00
8717;BME280;4395;48.554;8.820;2023-05-16T09:41:58;95739.81;;;10.92;100.00
8717;BME280;4395;48.554;8.820;2023-05-16T09:44:03;95712.66;;;10.88;100.00
8717;BME280;4395;48.554;8.820;2023-05-16T09:46:06;95737.06;;;10.82;100.00
8717;BME280;4395;48.554;8.820;2023-05-16T09:48:10;95746.00;;;10.92;100.00
8717;BME280;4395;48.554;8.820;2023-05-16T09:50:17;95745.28;;;11.02;100.00
8717;BME280;4395;48.554;8.820;2023-05-16T09:52:20;95748.13;;;11.27;100.00
8717;BME280;4395;48.554;8.820;2023-05-16T09:54:33;95747.47;;;11.10;100.00
8717;BME280;4395;48.554;8.820;2023-05-16T09:56:47;95750.19;;;11.15;100.00
8717;BME280;4395;48.554;8.820;2023-05-16T09:58:52;95730.81;;;11.13;100.00
8717;BME280;4395;48.554;8.820;2023-05-16T10:00:56;95735.84;;;11.42;100.00
8717;BME280;4395;48.554;8.820;2023-05-16T10:03:00;95737.75;;;11.51;100.00
8717;BME280;4395;48.554;8.820;2023-05-16T10:05:07;95742.81;;;11.43;100.00
8717;BME280;4395;48.554;8.820;2023-05-16T10:07:10;95733.56;;;11.76;100.00
8717;BME280;4395;48.554;8.820;2023-05-16T10:09:15;95739.94;;;11.59;100.00
8717;BME280;4395;48.554;8.820;2023-05-16T10:11:18;95741.19;;;11.37;100.00
8717;BME280;4395;48.554;8.820;2023-05-16T10:13:23;95744.41;;;11.34;100.00
8717;BME280;4395;48.554;8.820;2023-05-16T10:15:27;95739.16;;;11.59;100.00
8717;BME280;4395;48.554;8.820;2023-05-16T10:17:33;95736.53;;;11.22;100.00
8717;BME280;4395;48.554;8.820;2023-05-16T10:19:38;95744.81;;;11.15;100.00
8717;BME280;4395;48.554;8.820;2023-05-16T10:21:45;95731.75;;;11.34;100.00
8717;BME280;4395;48.554;8.820;2023-05-16T10:23:50;95739.63;;;11.51;100.00
8717;BME280;4395;48.554;8.820;2023-05-16T10:25:54;95742.81;;;11.43;100.00
8717;BME280;4395;48.554;8.820;2023-05-16T10:27:59;95721.22;;;11.27;100.00
8717;BME280;4395;48.554;8.820;2023-05-16T10:30:03;95741.75;;;11.44;100.00
8717;BME280;4395;48.554;8.820;2023-05-16T10:32:09;95750.41;;;11.51;100.00
8717;BME280;4395;48.554;8.820;2023-05-16T10:34:14;95749.59;;;11.50;100.00
8717;BME280;4395;48.554;8.820;2023-05-16T10:36:17;95751.31;;;11.19;100.00
8717;BME280;4395;48.554;8.820;2023-05-16T10:38:21;95748.69;;;11.35;100.00
8717;BME280;4395;48.554;8.820;2023-05-16T10:40:25;95746.66;;;11.57;100.00
8717;BME280;4395;48.554;8.820;2023-05-16T10:42:30;95748.47;;;11.94;100.00
8717;BME280;4395;48.554;8.820;2023-05-16T10:44:33;95749.53;;;11.87;100.00
8717;BME280;4395;48.554;8.820;2023-05-16T10:46:41;95604.81;;;10.85;100.00
8717;BME280;4395;48.554;8.820;2023-05-16T10:48:45;95748.63;;;11.77;100.00
8717;BME280;4395;48.554;8.820;2023-05-16T10:50:51;95743.06;;;11.88;100.00
8717;BME280;4395;48.554;8.820;2023-05-16T10:52:54;95750.56;;;11.81;100.00
8717;BME280;4395;48.554;8.820;2023-05-16T10:55:01;95752.59;;;11.59;100.00
8717;BME280;4395;48.554;8.820;2023-05-16T10:57:07;95745.06;;;11.56;100.00
8717;BME280;4395;48.554;8.820;2023-05-16T10:59:24;95747.13;;;11.39;100.00
8717;BME280;4395;48.554;8.820;2023-05-16T11:01:30;95720.63;;;11.15;100.00
8717;BME280;4395;48.554;8.820;2023-05-16T11:03:33;95740.13;;;11.38;100.00
8717;BME280;4395;48.554;8.820;2023-05-16T11:05:38;95756.88;;;11.55;100.00
8717;BME280;4395;48.554;8.820;2023-05-16T11:07:41;95748.69;;;11.35;100.00